createdAt,value
2018-12-08T00:00:03.905Z,148.68
2018-12-08T00:00:35.021Z,151.47
2018-12-08T00:01:06.132Z,149.30
2018-12-08T00:01:37.236Z,135.45
2018-12-08T00:02:08.366Z,137.55
2018-12-08T00:02:39.497Z,141.95
2018-12-08T00:03:10.625Z,137.45
2018-12-08T00:03:41.781Z,129.27
2018-12-08T00:04:12.896Z,130.05
2018-12-08T00:04:44.001Z,138.30
2018-12-08T00:05:15.120Z,130.78
2018-12-08T00:05:46.249Z,126.00
2018-12-08T00:06:18.228Z,129.65
2018-12-08T00:06:49.354Z,124.95
2018-12-08T00:07:20.460Z,133.97
2018-12-08T00:07:51.586Z,128.47
2018-12-08T00:08:22.700Z,122.87
2018-12-08T00:08:53.861Z,133.72
2018-12-08T00:09:25.027Z,125.67
2018-12-08T00:09:56.154Z,134.22
2018-12-08T00:10:27.287Z,128.42
2018-12-08T00:10:58.396Z,126.53
2018-12-08T00:11:30.574Z,131.95
2018-12-08T00:12:01.694Z,134.03
2018-12-08T00:12:32.816Z,128.20
2018-12-08T00:13:03.934Z,127.97
2018-12-08T00:13:35.044Z,130.47
2018-12-08T00:14:06.193Z,130.00
2018-12-08T00:14:37.354Z,133.52
2018-12-08T00:15:08.464Z,134.65
2018-12-08T00:15:39.567Z,135.22
2018-12-08T00:16:10.685Z,129.42
2018-12-08T00:16:41.799Z,133.72
2018-12-08T00:17:12.913Z,136.47
2018-12-08T00:17:44.025Z,137.80
2018-12-08T00:18:15.145Z,139.80
2018-12-08T00:18:46.260Z,139.75
2018-12-08T00:19:17.375Z,137.52
2018-12-08T00:19:48.533Z,130.03
2018-12-08T00:20:19.636Z,136.85
2018-12-08T00:20:50.788Z,137.30
2018-12-08T00:21:21.912Z,135.05
2018-12-08T00:21:53.021Z,135.00
2018-12-08T00:22:24.128Z,138.77
2018-12-08T00:22:55.254Z,136.97
2018-12-08T00:23:26.377Z,137.10
2018-12-08T00:23:57.500Z,141.12
2018-12-08T00:24:28.628Z,135.15
2018-12-08T00:24:59.730Z,136.12
2018-12-08T00:25:30.884Z,137.12
2018-12-08T00:26:02.033Z,135.50
2018-12-08T00:26:33.161Z,132.47
2018-12-08T00:27:04.278Z,130.85
2018-12-08T00:27:35.392Z,137.88
2018-12-08T00:28:06.674Z,136.15
2018-12-08T00:28:37.873Z,132.85
2018-12-08T00:29:08.984Z,134.40
2018-12-08T00:29:40.109Z,131.63
2018-12-08T00:30:11.270Z,122.15
2018-12-08T00:30:42.437Z,119.67
2018-12-08T00:31:13.560Z,124.55
2018-12-08T00:31:44.676Z,113.62
2018-12-08T00:32:15.789Z,116.05
2018-12-08T00:32:46.901Z,104.90
2018-12-08T00:33:18.017Z,110.68
2018-12-08T00:33:49.128Z,111.68
2018-12-08T00:34:20.243Z,114.32
2018-12-08T00:34:51.357Z,101.07
2018-12-08T00:35:22.468Z,104.50
2018-12-08T00:35:53.616Z,101.05
2018-12-08T00:36:24.725Z,114.80
2018-12-08T00:36:55.835Z,112.10
2018-12-08T00:37:26.945Z,112.32
2018-12-08T00:37:58.070Z,120.30
2018-12-08T00:38:29.185Z,116.80
2018-12-08T00:39:00.306Z,119.08
2018-12-08T00:39:31.416Z,117.30
2018-12-08T00:40:02.566Z,120.33
2018-12-08T00:40:33.679Z,123.25
2018-12-08T00:41:04.823Z,121.85
2018-12-08T00:41:35.930Z,119.80
2018-12-08T00:42:07.041Z,119.40
2018-12-08T00:42:38.153Z,119.13
2018-12-08T00:43:09.269Z,120.40
2018-12-08T00:43:40.386Z,108.95
2018-12-08T00:44:11.492Z,116.12
2018-12-08T00:44:42.602Z,116.47
2018-12-08T00:45:13.716Z,119.90
2018-12-08T00:45:44.827Z,116.47
2018-12-08T00:46:15.977Z,110.35
2018-12-08T00:46:47.094Z,107.17
2018-12-08T00:47:18.207Z,114.80
2018-12-08T00:47:49.354Z,109.60
2018-12-08T00:48:20.467Z,119.90
2018-12-08T00:48:51.580Z,120.80
2018-12-08T00:49:22.731Z,114.55
2018-12-08T00:49:53.857Z,115.45
2018-12-08T00:50:24.982Z,119.70
2018-12-08T00:50:56.088Z,111.37
2018-12-08T00:51:27.245Z,112.75
2018-12-08T00:51:58.369Z,113.28
2018-12-08T00:52:29.503Z,113.03
2018-12-08T00:53:01.548Z,111.90
2018-12-08T00:53:32.665Z,104.25
2018-12-08T00:54:03.788Z,106.63
2018-12-08T00:54:34.908Z,109.00
2018-12-08T00:55:06.034Z,112.05
2018-12-08T00:55:37.149Z,112.45
2018-12-08T00:56:08.262Z,112.83
2018-12-08T00:56:40.565Z,112.22
2018-12-08T00:57:11.674Z,109.78
2018-12-08T00:57:42.784Z,111.47
2018-12-08T00:58:13.929Z,107.12
2018-12-08T00:58:45.036Z,102.65
2018-12-08T00:59:16.160Z,102.75
2018-12-08T00:59:47.288Z,96.82
2018-12-08T01:00:18.424Z,99.35
2018-12-08T01:00:49.543Z,106.78
2018-12-08T01:01:20.654Z,101.12
2018-12-08T01:01:51.799Z,103.75
2018-12-08T01:02:22.926Z,96.60
2018-12-08T01:02:54.072Z,103.47
2018-12-08T01:03:25.524Z,107.80
2018-12-08T01:03:56.657Z,98.07
2018-12-08T01:04:27.806Z,102.25
2018-12-08T01:04:58.915Z,93.40
2018-12-08T01:05:30.025Z,95.30
2018-12-08T01:06:01.138Z,97.05
2018-12-08T01:06:32.245Z,98.03
2018-12-08T01:07:03.363Z,102.85
2018-12-08T01:07:34.484Z,100.97
2018-12-08T01:08:05.640Z,105.52
2018-12-08T01:08:36.761Z,104.00
2018-12-08T01:09:07.903Z,107.47
2018-12-08T01:09:39.033Z,98.58
2018-12-08T01:10:10.161Z,109.03
2018-12-08T01:10:41.268Z,106.22
2018-12-08T01:11:12.374Z,107.97
2018-12-08T01:11:43.488Z,107.20
2018-12-08T01:12:14.613Z,107.37
2018-12-08T01:12:45.730Z,111.68
2018-12-08T01:13:16.873Z,114.82
2018-12-08T01:13:47.984Z,110.80
2018-12-08T01:14:19.097Z,111.55
2018-12-08T01:14:50.214Z,109.78
2018-12-08T01:15:21.328Z,113.15
2018-12-08T01:15:52.443Z,104.95
2018-12-08T01:16:23.561Z,106.97
2018-12-08T01:16:54.682Z,105.58
2018-12-08T01:17:25.780Z,103.65
2018-12-08T01:17:57.925Z,102.87
2018-12-08T01:18:29.029Z,103.15
2018-12-08T01:19:00.189Z,107.58
2018-12-08T01:19:32.080Z,101.62
2018-12-08T01:20:03.218Z,96.92
2018-12-08T01:20:34.327Z,97.37
2018-12-08T01:21:05.433Z,103.30
2018-12-08T01:21:36.604Z,98.17
2018-12-08T01:22:07.717Z,107.35
2018-12-08T01:22:38.828Z,112.62
2018-12-08T01:23:09.947Z,111.77
2018-12-08T01:23:41.074Z,111.57
2018-12-08T01:24:12.183Z,113.92
2018-12-08T01:24:44.228Z,111.57
2018-12-08T01:25:15.543Z,118.53
2018-12-08T01:25:46.654Z,122.87
2018-12-08T01:26:17.785Z,116.95
2018-12-08T01:26:48.940Z,123.15
2018-12-08T01:27:20.066Z,123.20
2018-12-08T01:27:51.180Z,117.50
2018-12-08T01:28:22.304Z,128.23
2018-12-08T01:28:53.426Z,120.65
2018-12-08T01:29:24.577Z,124.07
2018-12-08T01:29:55.691Z,116.12
2018-12-08T01:30:26.825Z,119.17
2018-12-08T01:30:57.936Z,112.47
2018-12-08T01:31:29.049Z,109.30
2018-12-08T01:32:00.198Z,102.67
2018-12-08T01:32:31.309Z,101.25
2018-12-08T01:33:02.414Z,96.28
2018-12-08T01:33:33.518Z,95.42
2018-12-08T01:34:04.620Z,101.07
2018-12-08T01:34:35.735Z,96.47
2018-12-08T01:35:06.852Z,97.82
2018-12-08T01:35:37.965Z,95.40
2018-12-08T01:36:09.079Z,90.62
2018-12-08T01:36:40.192Z,90.07
2018-12-08T01:37:11.352Z,93.50
2018-12-08T01:37:42.456Z,91.87
2018-12-08T01:38:13.561Z,91.75
2018-12-08T01:38:44.703Z,94.42
2018-12-08T01:39:15.816Z,98.75
2018-12-08T01:39:46.919Z,95.10
2018-12-08T01:40:18.874Z,95.57
2018-12-08T01:40:50.006Z,98.47
2018-12-08T01:41:21.120Z,95.90
2018-12-08T01:41:52.229Z,93.07
2018-12-08T01:42:23.347Z,94.10
2018-12-08T01:42:54.474Z,102.78
2018-12-08T01:43:25.588Z,100.10
2018-12-08T01:43:56.723Z,97.95
2018-12-08T01:44:27.843Z,101.47
2018-12-08T01:44:58.952Z,108.52
2018-12-08T01:45:30.071Z,112.05
2018-12-08T01:46:01.183Z,122.10
2018-12-08T01:46:32.287Z,127.90
2018-12-08T01:47:03.401Z,124.45
2018-12-08T01:47:34.526Z,118.17
2018-12-08T01:48:05.644Z,132.47
2018-12-08T01:48:36.807Z,117.35
2018-12-08T01:49:07.914Z,128.97
2018-12-08T01:49:39.024Z,136.40
2018-12-08T01:50:10.131Z,120.45
2018-12-08T01:50:41.236Z,116.80
2018-12-08T01:51:12.393Z,125.18
2018-12-08T01:51:43.509Z,119.90
2018-12-08T01:52:14.616Z,132.30
2018-12-08T01:52:45.731Z,128.60
2018-12-08T01:53:16.851Z,128.95
2018-12-08T01:53:48.003Z,121.62
2018-12-08T01:54:19.116Z,131.40
2018-12-08T01:54:50.228Z,130.87
2018-12-08T01:55:21.340Z,126.10
2018-12-08T01:55:52.471Z,125.80
2018-12-08T01:56:23.584Z,137.07
2018-12-08T01:56:54.736Z,133.80
2018-12-08T01:57:25.849Z,128.50
2018-12-08T01:57:56.968Z,128.12
2018-12-08T01:58:28.104Z,123.25
2018-12-08T01:58:59.269Z,138.37
2018-12-08T01:59:30.393Z,127.62
2018-12-08T02:00:01.512Z,125.18
2018-12-08T02:00:32.647Z,132.40
2018-12-08T02:01:03.760Z,126.95
2018-12-08T02:01:34.912Z,125.97
2018-12-08T02:02:06.031Z,126.85
2018-12-08T02:02:37.149Z,126.62
2018-12-08T02:03:08.310Z,122.80
2018-12-08T02:03:39.420Z,130.22
2018-12-08T02:04:10.532Z,134.20
2018-12-08T02:04:41.649Z,126.20
2018-12-08T02:05:12.761Z,126.75
2018-12-08T02:05:43.878Z,126.87
2018-12-08T02:06:14.997Z,125.80
2018-12-08T02:06:46.123Z,130.40
2018-12-08T02:07:17.233Z,127.17
2018-12-08T02:07:48.345Z,123.97
2018-12-08T02:08:19.488Z,129.65
2018-12-08T02:08:50.606Z,133.82
2018-12-08T02:09:21.750Z,130.25
2018-12-08T02:09:52.864Z,129.60
2018-12-08T02:10:24.013Z,134.12
2018-12-08T02:10:55.119Z,138.65
2018-12-08T02:11:26.228Z,138.30
2018-12-08T02:11:57.350Z,139.30
2018-12-08T02:12:28.554Z,133.57
2018-12-08T02:12:59.712Z,133.82
2018-12-08T02:13:30.832Z,137.37
2018-12-08T02:14:02.000Z,138.65
2018-12-08T02:14:33.115Z,133.70
2018-12-08T02:15:04.236Z,133.80
2018-12-08T02:15:35.357Z,135.60
2018-12-08T02:16:06.492Z,136.47
2018-12-08T02:16:37.598Z,134.25
2018-12-08T02:17:08.708Z,140.28
2018-12-08T02:17:39.829Z,142.72
2018-12-08T02:18:10.980Z,138.28
2018-12-08T02:18:42.093Z,138.40
2018-12-08T02:19:13.205Z,136.03
2018-12-08T02:19:44.318Z,142.82
2018-12-08T02:20:15.467Z,143.57
2018-12-08T02:20:46.579Z,135.97
2018-12-08T02:21:17.684Z,139.52
2018-12-08T02:21:48.843Z,143.35
2018-12-08T02:22:19.962Z,135.30
2018-12-08T02:22:51.073Z,134.63
2018-12-08T02:23:22.182Z,139.85
2018-12-08T02:23:53.300Z,142.28
2018-12-08T02:24:24.411Z,141.30
2018-12-08T02:24:55.525Z,137.62
2018-12-08T02:25:26.754Z,141.03
2018-12-08T02:25:57.890Z,133.10
2018-12-08T02:26:29.028Z,130.52
2018-12-08T02:27:00.167Z,130.37
2018-12-08T02:27:31.317Z,128.32
2018-12-08T02:28:02.437Z,128.80
2018-12-08T02:28:33.553Z,138.30
2018-12-08T02:29:04.664Z,125.42
2018-12-08T02:29:35.772Z,127.17
2018-12-08T02:30:06.900Z,122.87
2018-12-08T02:30:38.013Z,111.52
2018-12-08T02:31:09.132Z,113.90
2018-12-08T02:31:40.235Z,117.30
2018-12-08T02:32:11.369Z,120.82
2018-12-08T02:32:42.526Z,121.00
2018-12-08T02:33:13.636Z,115.17
2018-12-08T02:33:44.764Z,106.32
2018-12-08T02:34:15.880Z,101.72
2018-12-08T02:34:46.989Z,104.38
2018-12-08T02:35:18.098Z,108.05
2018-12-08T02:35:49.218Z,107.15
2018-12-08T02:36:20.333Z,100.33
2018-12-08T02:36:51.441Z,103.35
2018-12-08T02:37:22.549Z,111.35
2018-12-08T02:37:53.717Z,105.67
2018-12-08T02:38:24.832Z,107.40
2018-12-08T02:38:55.964Z,109.12
2018-12-08T02:39:27.084Z,110.15
2018-12-08T02:39:58.207Z,118.45
2018-12-08T02:40:29.437Z,110.32
2018-12-08T02:41:00.592Z,107.52
2018-12-08T02:41:31.736Z,107.12
2018-12-08T02:42:02.852Z,117.28
2018-12-08T02:42:33.973Z,112.72
2018-12-08T02:43:05.180Z,114.52
2018-12-08T02:43:36.315Z,114.47
2018-12-08T02:44:07.468Z,111.77
2018-12-08T02:44:38.581Z,116.57
2018-12-08T02:45:09.716Z,120.77
2018-12-08T02:45:40.825Z,111.68
2018-12-08T02:46:11.944Z,115.30
2018-12-08T02:46:43.092Z,117.15
2018-12-08T02:47:14.220Z,112.00
2018-12-08T02:47:45.340Z,127.67
2018-12-08T02:48:16.524Z,117.22
2018-12-08T02:48:47.682Z,115.85
2018-12-08T02:49:18.789Z,107.20
2018-12-08T02:49:49.929Z,117.72
2018-12-08T02:50:21.039Z,115.45
2018-12-08T02:50:52.198Z,120.30
2018-12-08T02:51:23.344Z,117.90
2018-12-08T02:51:54.461Z,111.32
2018-12-08T02:52:25.570Z,112.10
2018-12-08T02:52:56.685Z,109.97
2018-12-08T02:53:27.810Z,118.70
2018-12-08T02:53:59.033Z,121.65
2018-12-08T02:54:30.320Z,117.45
2018-12-08T02:55:01.446Z,121.72
2018-12-08T02:55:32.565Z,117.03
2018-12-08T02:56:03.695Z,121.42
2018-12-08T02:56:34.814Z,107.10
2018-12-08T02:57:05.971Z,114.03
2018-12-08T02:57:37.086Z,112.65
2018-12-08T02:58:08.194Z,112.80
2018-12-08T02:58:39.306Z,113.77
2018-12-08T02:59:10.416Z,117.62
2018-12-08T02:59:41.537Z,118.45
2018-12-08T03:00:12.696Z,121.47
2018-12-08T03:00:43.813Z,125.67
2018-12-08T03:01:14.934Z,123.18
2018-12-08T03:01:46.050Z,130.00
2018-12-08T03:02:17.161Z,123.87
2018-12-08T03:02:48.281Z,129.42
2018-12-08T03:03:19.402Z,136.15
2018-12-08T03:03:50.522Z,132.45
2018-12-08T03:04:21.654Z,137.52
2018-12-08T03:04:52.775Z,137.70
2018-12-08T03:05:24.110Z,140.43
2018-12-08T03:05:55.266Z,135.68
2018-12-08T03:06:26.424Z,150.53
2018-12-08T03:06:57.536Z,144.20
2018-12-08T03:07:28.654Z,139.68
2018-12-08T03:07:59.801Z,150.30
2018-12-08T03:08:30.924Z,137.90
2018-12-08T03:09:02.045Z,145.77
2018-12-08T03:09:33.163Z,151.37
2018-12-08T03:10:04.272Z,142.40
2018-12-08T03:10:35.397Z,137.05
2018-12-08T03:11:06.495Z,145.32
2018-12-08T03:11:37.605Z,146.53
2018-12-08T03:12:08.751Z,144.57
2018-12-08T03:12:39.866Z,149.45
2018-12-08T03:13:10.968Z,145.30
2018-12-08T03:13:42.079Z,149.10
2018-12-08T03:14:13.236Z,143.13
2018-12-08T03:14:44.341Z,143.85
2018-12-08T03:15:15.459Z,145.22
2018-12-08T03:15:46.574Z,145.68
2018-12-08T03:16:17.681Z,145.53
2018-12-08T03:16:48.786Z,144.77
2018-12-08T03:17:19.887Z,150.45
2018-12-08T03:17:50.996Z,144.77
2018-12-08T03:18:22.139Z,151.95
2018-12-08T03:18:53.289Z,147.70
2018-12-08T03:19:24.397Z,148.35
2018-12-08T03:19:55.508Z,152.60
2018-12-08T03:20:26.623Z,154.60
2018-12-08T03:20:57.741Z,153.05
2018-12-08T03:21:28.849Z,155.57
2018-12-08T03:21:59.970Z,153.18
2018-12-08T03:22:31.145Z,147.72
2018-12-08T03:23:02.250Z,146.82
2018-12-08T03:23:33.366Z,158.63
2018-12-08T03:24:04.469Z,158.52
2018-12-08T03:24:35.582Z,153.72
2018-12-08T03:25:06.731Z,153.78
2018-12-08T03:25:37.852Z,152.40
2018-12-08T03:26:08.996Z,157.22
2018-12-08T03:26:40.145Z,160.57
2018-12-08T03:27:11.261Z,162.88
2018-12-08T03:27:42.376Z,168.25
2018-12-08T03:28:13.485Z,168.68
2018-12-08T03:28:44.595Z,159.10
2018-12-08T03:29:15.701Z,165.97
2018-12-08T03:29:46.937Z,166.53
2018-12-08T03:30:18.057Z,159.67
2018-12-08T03:30:49.172Z,166.75
2018-12-08T03:31:20.305Z,169.20
2018-12-08T03:31:51.482Z,166.55
2018-12-08T03:32:22.612Z,168.17
2018-12-08T03:32:53.742Z,164.10
2018-12-08T03:33:25.373Z,167.32
2018-12-08T03:33:56.482Z,165.52
2018-12-08T03:34:27.597Z,169.53
2018-12-08T03:34:58.722Z,167.45
2018-12-08T03:35:29.850Z,168.93
2018-12-08T03:36:00.957Z,165.57
2018-12-08T03:36:32.071Z,172.53
2018-12-08T03:37:03.215Z,163.85
2018-12-08T03:37:34.363Z,170.38
2018-12-08T03:38:05.473Z,166.37
2018-12-08T03:38:36.589Z,169.22
2018-12-08T03:39:07.707Z,172.07
2018-12-08T03:39:38.846Z,173.85
2018-12-08T03:40:09.973Z,166.65
2018-12-08T03:40:41.085Z,178.30
2018-12-08T03:41:12.198Z,169.65
2018-12-08T03:41:43.355Z,168.25
2018-12-08T03:42:14.463Z,180.87
2018-12-08T03:42:45.567Z,169.10
2018-12-08T03:43:16.699Z,181.15
2018-12-08T03:43:47.804Z,179.42
2018-12-08T03:44:18.915Z,174.47
2018-12-08T03:44:50.063Z,177.50
2018-12-08T03:45:21.177Z,177.20
2018-12-08T03:45:52.283Z,177.05
2018-12-08T03:46:23.397Z,169.20
2018-12-08T03:46:54.507Z,159.45
2018-12-08T03:47:25.632Z,158.65
2018-12-08T03:47:56.748Z,162.03
2018-12-08T03:48:27.873Z,163.07
2018-12-08T03:48:58.976Z,155.20
2018-12-08T03:49:30.089Z,162.68
2018-12-08T03:50:01.240Z,161.07
2018-12-08T03:50:32.364Z,156.40
2018-12-08T03:51:03.524Z,151.60
2018-12-08T03:51:34.637Z,159.93
2018-12-08T03:52:06.527Z,150.20
2018-12-08T03:52:37.636Z,149.05
2018-12-08T03:53:08.740Z,140.62
2018-12-08T03:53:39.858Z,147.30
2018-12-08T03:54:10.975Z,142.18
2018-12-08T03:54:42.097Z,152.02
2018-12-08T03:55:13.261Z,148.32
2018-12-08T03:55:45.019Z,148.53
2018-12-08T03:56:16.421Z,150.18
2018-12-08T03:56:47.541Z,148.43
2018-12-08T03:57:19.671Z,145.28
2018-12-08T03:57:50.795Z,144.57
2018-12-08T03:58:21.921Z,151.80
2018-12-08T03:58:53.043Z,144.47
2018-12-08T03:59:24.165Z,146.02
2018-12-08T03:59:55.276Z,149.07
2018-12-08T04:00:26.466Z,141.60
2018-12-08T04:00:57.583Z,145.72
2018-12-08T04:01:28.709Z,157.37
2018-12-08T04:01:59.830Z,149.45
2018-12-08T04:02:30.946Z,158.22
2018-12-08T04:03:02.094Z,151.20
2018-12-08T04:03:33.239Z,158.35
2018-12-08T04:04:04.351Z,153.02
2018-12-08T04:04:35.463Z,159.50
2018-12-08T04:05:06.583Z,153.55
2018-12-08T04:05:37.694Z,163.50
2018-12-08T04:06:08.806Z,155.12
2018-12-08T04:06:39.908Z,153.07
2018-12-08T04:07:11.027Z,155.95
2018-12-08T04:07:42.134Z,152.05
2018-12-08T04:08:13.272Z,155.65
2018-12-08T04:08:44.389Z,150.90
2018-12-08T04:09:15.498Z,153.53
2018-12-08T04:09:46.608Z,154.32
2018-12-08T04:10:17.725Z,156.05
2018-12-08T04:10:48.837Z,158.80
2018-12-08T04:11:20.042Z,158.52
2018-12-08T04:11:51.208Z,152.38
2018-12-08T04:12:22.335Z,150.85
2018-12-08T04:12:53.494Z,143.32
2018-12-08T04:13:24.602Z,146.87
2018-12-08T04:13:55.712Z,151.45
2018-12-08T04:14:26.832Z,145.55
2018-12-08T04:14:57.938Z,145.40
2018-12-08T04:15:29.108Z,148.68
2018-12-08T04:16:00.244Z,158.80
2018-12-08T04:16:31.353Z,151.47
2018-12-08T04:17:02.470Z,150.47
2018-12-08T04:17:33.577Z,150.78
2018-12-08T04:18:04.686Z,148.82
2018-12-08T04:18:35.797Z,159.43
2018-12-08T04:19:06.946Z,162.32
2018-12-08T04:19:38.072Z,159.72
2018-12-08T04:20:09.185Z,162.45
2018-12-08T04:20:40.325Z,156.43
2018-12-08T04:21:11.437Z,152.38
2018-12-08T04:21:42.574Z,150.62
2018-12-08T04:22:13.719Z,153.00
2018-12-08T04:22:44.833Z,155.05
2018-12-08T04:23:15.949Z,153.57
2018-12-08T04:23:47.053Z,144.68
2018-12-08T04:24:18.167Z,153.18
2018-12-08T04:24:49.274Z,142.62
2018-12-08T04:25:20.375Z,148.68
2018-12-08T04:25:51.517Z,146.35
2018-12-08T04:26:22.615Z,146.05
2018-12-08T04:26:53.723Z,146.43
2018-12-08T04:27:24.845Z,149.10
2018-12-08T04:27:55.996Z,148.25
2018-12-08T04:28:27.097Z,149.45
2018-12-08T04:28:58.203Z,147.05
2018-12-08T04:29:29.323Z,139.25
2018-12-08T04:30:00.434Z,144.55
2018-12-08T04:30:32.447Z,136.97
2018-12-08T04:31:03.670Z,142.90
2018-12-08T04:31:34.776Z,139.35
2018-12-08T04:32:05.902Z,144.75
2018-12-08T04:32:37.014Z,144.15
2018-12-08T04:33:08.123Z,146.72
2018-12-08T04:33:39.275Z,146.85
2018-12-08T04:34:10.388Z,138.57
2018-12-08T04:34:41.503Z,136.20
2018-12-08T04:35:12.623Z,133.03
2018-12-08T04:35:43.742Z,136.18
2018-12-08T04:36:14.863Z,134.57
2018-12-08T04:36:46.000Z,131.12
2018-12-08T04:37:17.107Z,126.65
2018-12-08T04:37:48.221Z,131.25
2018-12-08T04:38:19.334Z,134.78
2018-12-08T04:38:50.452Z,136.43
2018-12-08T04:39:21.571Z,134.90
2018-12-08T04:39:52.690Z,135.82
2018-12-08T04:40:23.802Z,131.57
2018-12-08T04:40:54.912Z,131.20
2018-12-08T04:41:26.024Z,131.50
2018-12-08T04:41:57.171Z,125.40
2018-12-08T04:42:28.279Z,122.35
2018-12-08T04:42:59.386Z,128.38
2018-12-08T04:43:30.492Z,128.70
2018-12-08T04:44:01.611Z,127.47
2018-12-08T04:44:32.730Z,121.17
2018-12-08T04:45:03.872Z,124.02
2018-12-08T04:45:35.207Z,120.92
2018-12-08T04:46:06.323Z,123.30
2018-12-08T04:46:37.438Z,120.42
2018-12-08T04:47:08.600Z,118.30
2018-12-08T04:47:39.701Z,122.10
2018-12-08T04:48:11.911Z,126.47
2018-12-08T04:48:43.021Z,119.35
2018-12-08T04:49:14.121Z,118.20
2018-12-08T04:49:45.225Z,118.15
2018-12-08T04:50:16.330Z,120.57
2018-12-08T04:50:47.437Z,116.77
2018-12-08T04:51:18.548Z,121.60
2018-12-08T04:51:49.656Z,117.33
2018-12-08T04:52:23.833Z,129.75
2018-12-08T04:52:54.994Z,126.40
2018-12-08T04:53:26.118Z,123.10
2018-12-08T04:53:57.241Z,119.72
2018-12-08T04:54:28.488Z,116.40
2018-12-08T04:54:59.618Z,119.53
2018-12-08T04:55:30.729Z,120.13
2018-12-08T04:56:01.880Z,118.93
2018-12-08T04:56:33.030Z,122.65
2018-12-08T04:57:04.182Z,127.62
2018-12-08T04:57:35.327Z,134.30
2018-12-08T04:58:06.436Z,127.55
2018-12-08T04:58:37.626Z,139.37
2018-12-08T04:59:08.785Z,125.85
2018-12-08T04:59:39.893Z,127.78
2018-12-08T05:00:11.002Z,132.40
2018-12-08T05:00:42.112Z,130.78
2018-12-08T05:01:13.216Z,131.60
2018-12-08T05:01:44.319Z,137.12
2018-12-08T05:02:15.455Z,133.22
2018-12-08T05:02:46.569Z,135.78
2018-12-08T05:03:17.683Z,131.30
2018-12-08T05:03:48.796Z,131.72
2018-12-08T05:04:19.950Z,123.38
2018-12-08T05:04:51.070Z,125.27
2018-12-08T05:05:22.193Z,132.50
2018-12-08T05:05:53.303Z,119.82
2018-12-08T05:06:24.410Z,130.60
2018-12-08T05:06:55.566Z,124.47
2018-12-08T05:07:26.678Z,121.40
2018-12-08T05:07:57.789Z,123.30
2018-12-08T05:08:28.903Z,126.55
2018-12-08T05:09:00.003Z,123.42
2018-12-08T05:09:31.099Z,125.60
2018-12-08T05:10:02.213Z,112.92
2018-12-08T05:10:33.334Z,126.45
2018-12-08T05:11:04.440Z,120.42
2018-12-08T05:11:35.545Z,115.45
2018-12-08T05:12:06.692Z,115.72
2018-12-08T05:12:37.804Z,121.92
2018-12-08T05:13:08.905Z,123.40
2018-12-08T05:13:40.017Z,117.17
2018-12-08T05:14:11.118Z,117.82
2018-12-08T05:14:42.229Z,118.75
2018-12-08T05:15:14.342Z,112.15
2018-12-08T05:15:45.448Z,118.30
2018-12-08T05:16:16.550Z,120.15
2018-12-08T05:16:47.660Z,113.57
2018-12-08T05:17:18.799Z,119.17
2018-12-08T05:17:49.908Z,119.57
2018-12-08T05:18:21.007Z,115.20
2018-12-08T05:18:52.117Z,119.22
2018-12-08T05:19:23.226Z,116.62
2018-12-08T05:19:54.359Z,120.82
2018-12-08T05:20:25.457Z,118.47
2018-12-08T05:20:56.607Z,113.95
2018-12-08T05:21:27.711Z,114.20
2018-12-08T05:21:58.822Z,122.35
2018-12-08T05:22:29.918Z,121.13
2018-12-08T05:23:01.024Z,121.37
2018-12-08T05:23:32.146Z,120.20
2018-12-08T05:24:03.260Z,120.60
2018-12-08T05:24:34.379Z,121.17
2018-12-08T05:25:05.503Z,120.70
2018-12-08T05:25:36.608Z,115.62
2018-12-08T05:26:07.744Z,121.67
2018-12-08T05:26:38.858Z,117.42
2018-12-08T05:27:09.956Z,121.47
2018-12-08T05:27:41.065Z,117.00
2018-12-08T05:28:12.185Z,120.10
2018-12-08T05:28:43.317Z,123.92
2018-12-08T05:29:14.438Z,120.67
2018-12-08T05:29:45.576Z,118.47
2018-12-08T05:30:16.710Z,123.00
2018-12-08T05:30:47.834Z,119.37
2018-12-08T05:31:18.950Z,115.90
2018-12-08T05:31:50.070Z,116.73
2018-12-08T05:32:21.201Z,115.37
2018-12-08T05:32:52.316Z,114.25
2018-12-08T05:33:23.428Z,110.22
2018-12-08T05:33:54.535Z,111.68
2018-12-08T05:34:25.646Z,112.45
2018-12-08T05:34:56.796Z,110.05
2018-12-08T05:35:27.913Z,113.05
2018-12-08T05:35:59.033Z,108.50
2018-12-08T05:36:30.143Z,108.75
2018-12-08T05:37:01.290Z,110.72
2018-12-08T05:37:32.414Z,109.40
2018-12-08T05:38:03.533Z,107.97
2018-12-08T05:38:34.635Z,100.58
2018-12-08T05:39:05.757Z,106.12
2018-12-08T05:39:36.867Z,109.50
2018-12-08T05:40:14.654Z,108.67
2018-12-08T05:40:45.830Z,115.42
2018-12-08T05:41:17.026Z,107.92
2018-12-08T05:41:48.197Z,115.45
2018-12-08T05:42:19.333Z,113.65
2018-12-08T05:42:50.786Z,117.80
2018-12-08T05:43:21.945Z,113.08
2018-12-08T05:43:53.099Z,111.92
2018-12-08T05:44:24.204Z,128.68
2018-12-08T05:44:55.312Z,122.70
2018-12-08T05:45:26.424Z,126.22
2018-12-08T05:45:57.576Z,118.17
2018-12-08T05:46:28.694Z,114.30
2018-12-08T05:46:59.809Z,120.08
2018-12-08T05:47:30.916Z,120.28
2018-12-08T05:48:02.044Z,127.17
2018-12-08T05:48:33.151Z,120.05
2018-12-08T05:49:04.262Z,117.00
2018-12-08T05:49:35.386Z,115.72
2018-12-08T05:50:06.502Z,116.55
2018-12-08T05:50:37.639Z,112.40
2018-12-08T05:51:09.061Z,115.25
2018-12-08T05:51:40.184Z,118.60
2018-12-08T05:52:11.434Z,117.67
2018-12-08T05:52:42.619Z,117.33
2018-12-08T05:53:13.742Z,122.82
2018-12-08T05:53:44.850Z,123.62
2018-12-08T05:54:16.465Z,122.72
2018-12-08T05:54:47.573Z,119.35
2018-12-08T05:55:18.685Z,115.80
2018-12-08T05:55:49.800Z,124.00
2018-12-08T05:56:20.911Z,118.13
2018-12-08T05:56:52.026Z,109.60
2018-12-08T05:57:23.149Z,115.80
2018-12-08T05:57:54.297Z,121.70
2018-12-08T05:58:25.402Z,113.97
2018-12-08T05:58:56.511Z,117.20
2018-12-08T05:59:27.615Z,119.13
2018-12-08T05:59:58.767Z,110.78
2018-12-08T06:00:29.894Z,122.05
2018-12-08T06:01:00.996Z,113.80
2018-12-08T06:01:32.099Z,119.10
2018-12-08T06:02:03.215Z,116.67
2018-12-08T06:02:34.326Z,122.47
2018-12-08T06:03:05.475Z,117.57
2018-12-08T06:03:36.595Z,110.60
2018-12-08T06:04:07.704Z,109.52
2018-12-08T06:04:38.830Z,112.65
2018-12-08T06:05:10.118Z,112.95
2018-12-08T06:05:41.234Z,114.70
2018-12-08T06:06:12.359Z,111.08
2018-12-08T06:06:43.529Z,111.55
2018-12-08T06:07:14.656Z,115.40
2018-12-08T06:07:45.895Z,116.28
2018-12-08T06:08:17.032Z,107.90
2018-12-08T06:08:48.146Z,108.92
2018-12-08T06:09:19.253Z,114.30
2018-12-08T06:09:50.363Z,110.32
2018-12-08T06:10:21.474Z,108.22
2018-12-08T06:10:52.617Z,112.83
2018-12-08T06:11:23.785Z,114.97
2018-12-08T06:11:54.885Z,113.12
2018-12-08T06:12:26.013Z,107.70
2018-12-08T06:12:57.124Z,106.03
2018-12-08T06:13:28.238Z,108.27
2018-12-08T06:13:59.353Z,101.95
2018-12-08T06:14:30.459Z,95.03
2018-12-08T06:15:01.570Z,101.82
2018-12-08T06:15:32.668Z,103.20
2018-12-08T06:16:03.814Z,105.47
2018-12-08T06:16:34.932Z,95.20
2018-12-08T06:17:06.041Z,94.67
2018-12-08T06:17:37.157Z,98.37
2018-12-08T06:18:08.267Z,93.27
2018-12-08T06:18:39.418Z,98.92
2018-12-08T06:19:10.538Z,96.25
2018-12-08T06:19:41.644Z,87.05
2018-12-08T06:20:12.747Z,89.37
2018-12-08T06:20:43.864Z,87.20
2018-12-08T06:21:15.013Z,88.78
2018-12-08T06:21:46.178Z,84.55
2018-12-08T06:22:17.308Z,84.52
2018-12-08T06:22:48.455Z,82.25
2018-12-08T06:23:56.918Z,83.75
2018-12-08T06:24:28.035Z,90.42
2018-12-08T06:24:59.186Z,88.70
2018-12-08T06:25:30.298Z,83.45
2018-12-08T06:26:01.414Z,89.00
2018-12-08T06:26:32.537Z,85.12
2018-12-08T06:27:03.708Z,83.97
2018-12-08T06:27:34.833Z,83.37
2018-12-08T06:28:05.965Z,83.60
2018-12-08T06:28:38.894Z,82.37
2018-12-08T06:29:10.255Z,84.52
2018-12-08T06:29:41.397Z,83.52
2018-12-08T06:30:12.510Z,81.25